Time;durP1;ratioP1;P1;durP2;ratioP2;P2;SDS_P1;SDS_P2;PMS_P1;PMS_P2;Temp;Humidity;BMP_temperature;BMP_pressure;BME280_temperature;BME280_humidity;BME280_pressure;Samples;Min_cycle;Max_cycle;Signal;HPM_P1;HPM_P2
2023/01/18 00:01:56;;;;;;;14.50;13.10;;;4.00;57.10;;;;;;20456;6859;336660;-73
2023/01/18 00:04:22;;;;;;;12.25;11.15;;;4.20;56.80;;;;;;20676;6860;117246;-72
2023/01/18 00:06:47;;;;;;;12.70;11.18;;;4.20;56.50;;;;;;20656;6860;121708;-73
2023/01/18 00:09:13;;;;;;;16.52;14.57;;;4.10;56.90;;;;;;20462;6860;337631;-73
2023/01/18 00:11:39;;;;;;;17.50;15.70;;;4.20;56.90;;;;;;20463;6860;307678;-73
2023/01/18 00:14:04;;;;;;;18.70;15.80;;;4.50;56.50;;;;;;20467;6860;307205;-73
2023/01/18 00:16:29;;;;;;;14.20;12.73;;;4.80;55.70;;;;;;20655;6860;117723;-73
2023/01/18 00:18:56;;;;;;;13.50;12.10;;;4.70;55.50;;;;;;20674;6860;117925;-73
2023/01/18 00:21:23;;;;;;;17.60;15.67;;;4.50;55.80;;;;;;20457;6860;310264;-73
2023/01/18 00:23:48;;;;;;;19.70;17.27;;;4.50;56.20;;;;;;20464;6860;327020;-73
2023/01/18 00:26:14;;;;;;;19.42;17.30;;;4.70;55.70;;;;;;20463;6860;283582;-73
2023/01/18 00:28:39;;;;;;;21.50;18.60;;;5.00;55.20;;;;;;20444;6860;312113;-73
2023/01/18 00:31:11;;;;;;;21.77;15.07;;;5.10;54.60;;;;;;20674;6860;121500;-73
2023/01/18 00:33:37;;;;;;;17.75;15.88;;;4.90;54.90;;;;;;20456;6860;278563;-73
2023/01/18 00:36:02;;;;;;;17.03;13.13;;;4.90;55.20;;;;;;20674;6860;117644;-72
2023/01/18 00:38:28;;;;;;;18.27;16.33;;;4.80;55.70;;;;;;20441;6860;278471;-73
2023/01/18 00:40:54;;;;;;;19.67;16.50;;;4.80;55.60;;;;;;20466;6861;284522;-73
2023/01/18 00:43:40;;;;;;;16.97;15.33;;;5.20;54.80;;;;;;20463;6861;310703;-73
2023/01/18 00:46:06;;;;;;;20.33;17.20;;;5.40;54.10;;;;;;20467;6861;277685;-73
2023/01/18 00:48:33;;;;;;;18.80;16.90;;;5.40;54.10;;;;;;20353;6861;310527;-73
2023/01/18 00:50:59;;;;;;;17.60;15.80;;;5.50;53.90;;;;;;20470;6861;278152;-73
2023/01/18 00:53:24;;;;;;;16.02;13.88;;;5.50;54.40;;;;;;20679;6861;117359;-73
2023/01/18 00:55:50;;;;;;;17.97;16.03;;;5.40;54.60;;;;;;20468;6861;337272;-72
2023/01/18 00:58:16;;;;;;;18.65;16.58;;;5.20;54.50;;;;;;20459;6861;341204;-72
2023/01/18 01:00:41;;;;;;;17.08;13.32;;;5.30;54.40;;;;;;20660;6861;117623;-72
2023/01/18 01:03:07;;;;;;;19.90;16.33;;;5.20;54.50;;;;;;20459;6861;313465;-72
2023/01/18 01:08:20;;;;;;;15.60;13.33;;;5.00;54.50;;;;;;20672;6861;117437;-73
2023/01/18 01:10:45;;;;;;;19.40;17.35;;;5.00;54.50;;;;;;20438;6861;341365;-73
2023/01/18 01:26:57;;;;;;;31.23;14.70;;;4.80;55.60;;;;;;20677;6860;117598;-72
2023/01/18 01:29:23;;;;;;;29.33;14.65;;;4.40;56.00;;;;;;20677;6860;118213;-72
2023/01/18 01:31:49;;;;;;;224.10;19.77;;;4.40;56.00;;;;;;20672;6860;121165;-72
2023/01/18 01:34:16;;;;;;;23.35;13.48;;;4.20;56.50;;;;;;20675;6860;118468;-72
2023/01/18 01:36:41;;;;;;;23.10;17.63;;;4.10;57.10;;;;;;20651;6860;117416;-72
2023/01/18 01:39:09;;;;;;;22.37;19.13;;;3.90;57.40;;;;;;20468;6860;278661;-72
2023/01/18 01:41:32;;;;;;;19.52;16.17;;;4.10;57.80;;;;;;20670;6860;117356;-72
2023/01/18 01:44:05;;;;;;;24.55;21.50;;;4.10;57.50;;;;;;20455;6860;336759;-72
2023/01/18 01:46:40;;;;;;;21.10;16.33;;;4.40;57.80;;;;;;20654;6860;117316;-72
2023/01/18 01:49:30;;;;;;;19.53;15.77;;;4.40;57.40;;;;;;20662;6860;117554;-72
2023/01/18 01:51:57;;;;;;;19.43;15.17;;;4.20;57.60;;;;;;20664;6861;117353;-73
2023/01/18 01:54:33;;;;;;;21.90;18.97;;;4.00;57.90;;;;;;20452;6861;308117;-74
2023/01/18 01:56:58;;;;;;;20.60;18.40;;;4.20;57.90;;;;;;20387;6879;337818;-73
2023/01/18 01:59:24;;;;;;;17.33;14.77;;;4.50;56.90;;;;;;20572;6868;117372;-73
2023/01/18 02:01:50;;;;;;;17.90;14.27;;;4.50;56.60;;;;;;20626;6875;123310;-73
2023/01/18 02:04:15;;;;;;;17.42;13.73;;;4.30;56.90;;;;;;20677;6861;117481;-73
2023/01/18 02:06:41;;;;;;;17.15;14.20;;;4.00;58.10;;;;;;20651;6861;128279;-73
2023/01/18 02:09:07;;;;;;;18.80;14.27;;;4.00;57.80;;;;;;20673;6861;117856;-73
2023/01/18 02:11:32;;;;;;;20.98;14.90;;;3.90;58.20;;;;;;20639;6861;117803;-73
2023/01/18 02:13:59;;;;;;;16.95;14.82;;;3.80;58.70;;;;;;20670;6861;117384;-73
2023/01/18 02:16:41;;;;;;;22.92;20.40;;;3.90;58.80;;;;;;20430;6861;337578;-74
2023/01/18 02:19:07;;;;;;;23.20;20.70;;;3.90;58.70;;;;;;20429;6861;284568;-73
2023/01/18 02:21:35;;;;;;;24.17;20.37;;;4.40;57.40;;;;;;20432;6861;282030;-72
2023/01/18 02:24:11;;;;;;;21.03;15.47;;;4.70;56.40;;;;;;20658;6859;117957;-72
2023/01/18 02:26:48;;;;;;;16.20;14.07;;;4.40;56.60;;;;;;20615;6860;117403;-72
2023/01/18 02:29:16;;;;;;;17.57;14.67;;;4.30;56.60;;;;;;20660;6860;117326;-73
2023/01/18 02:32:13;;;;;;;23.77;19.53;;;4.20;57.20;;;;;;20323;6860;308021;-73
2023/01/18 02:34:48;;;;;;;18.70;14.80;;;4.20;57.20;;;;;;20248;6860;119503;-73
2023/01/18 02:37:34;;;;;;;17.13;14.30;;;4.20;57.20;;;;;;20660;6860;117870;-73
2023/01/18 02:40:12;;;;;;;22.60;19.90;;;4.00;57.40;;;;;;20460;6860;342842;-73
2023/01/18 02:48:16;;;;;;;30.12;23.02;;;4.30;57.10;;;;;;20461;6860;278613;-73
2023/01/18 02:50:43;;;;;;;25.00;22.23;;;4.60;56.50;;;;;;20429;6860;455013;-73
2023/01/18 02:53:09;;;;;;;24.02;21.45;;;5.10;55.60;;;;;;20457;6860;321970;-73
2023/01/18 02:55:55;;;;;;;22.83;18.33;;;5.10;55.50;;;;;;20656;6860;117327;-73
2023/01/18 02:58:23;;;;;;;22.53;19.93;;;4.90;55.50;;;;;;20445;6860;311716;-73
2023/01/18 03:00:58;;;;;;;22.53;20.10;;;4.90;55.70;;;;;;20449;6860;278647;-72
2023/01/18 03:03:24;;;;;;;19.20;16.43;;;5.10;55.30;;;;;;20591;6861;117481;-72
2023/01/18 03:05:50;;;;;;;19.55;14.77;;;4.90;55.20;;;;;;20674;6861;121359;-72
2023/01/18 03:08:15;;;;;;;23.07;20.07;;;4.60;55.80;;;;;;20435;6861;307693;-72
2023/01/18 03:10:51;;;;;;;25.85;21.90;;;4.60;56.30;;;;;;20416;6861;341890;-72
2023/01/18 03:13:17;;;;;;;22.03;17.37;;;4.80;56.00;;;;;;20627;6861;117370;-73
2023/01/18 03:15:52;;;;;;;23.00;16.63;;;4.80;56.00;;;;;;20643;6861;117303;-72
2023/01/18 03:18:17;;;;;;;21.07;15.63;;;4.60;56.50;;;;;;20655;6861;117496;-71
2023/01/18 03:20:43;;;;;;;17.85;14.55;;;4.40;57.00;;;;;;20643;6861;117947;-72
2023/01/18 03:26:02;;;;;;;20.90;15.20;;;4.00;58.30;;;;;;20670;6861;118031;-72
2023/01/18 03:34:18;;;;;;;24.48;20.40;;;4.00;58.30;;;;;;20463;6861;277675;-73
2023/01/18 03:36:45;;;;;;;24.33;20.73;;;4.50;57.80;;;;;;20431;6859;278633;-73
2023/01/18 03:39:09;;;;;;;16.45;14.68;;;4.80;56.50;;;;;;20664;6860;117585;-72
2023/01/18 03:41:34;;;;;;;21.40;19.00;;;4.70;56.20;;;;;;20445;6860;278752;-72
2023/01/18 03:44:03;;;;;;;25.45;21.35;;;4.70;56.50;;;;;;20445;6860;313035;-72
2023/01/18 03:46:29;;;;;;;21.67;16.17;;;4.90;55.70;;;;;;20634;6860;117439;-73
2023/01/18 03:48:54;;;;;;;19.48;16.23;;;4.80;56.20;;;;;;20655;6860;117543;-72
2023/01/18 03:51:33;;;;;;;20.62;14.57;;;4.60;56.20;;;;;;20658;6860;117713;-72
2023/01/18 03:54:08;;;;;;;22.33;19.93;;;4.30;56.70;;;;;;20416;6860;279581;-71
2023/01/18 03:56:50;;;;;;;19.37;16.07;;;4.50;57.50;;;;;;20606;6860;123873;-71
2023/01/18 03:59:15;;;;;;;17.57;14.67;;;4.50;57.20;;;;;;20637;6860;117568;-71
2023/01/18 04:01:43;;;;;;;15.93;13.77;;;4.30;57.50;;;;;;20682;6860;117315;-71
2023/01/18 04:04:06;;;;;;;36.25;31.85;;;4.20;57.90;;;;;;20458;6860;302363;-71
2023/01/18 04:06:32;;;;;;;23.30;20.27;;;4.30;57.60;;;;;;20437;6860;335875;-73
2023/01/18 04:08:58;;;;;;;22.20;16.35;;;4.60;57.90;;;;;;20654;6860;117822;-73
2023/01/18 04:11:23;;;;;;;25.73;21.17;;;4.60;56.90;;;;;;20447;6860;307194;-72
2023/01/18 04:13:49;;;;;;;23.92;16.62;;;4.70;56.80;;;;;;20658;6861;117348;-71
2023/01/18 04:16:15;;;;;;;18.52;14.60;;;4.60;56.50;;;;;;20657;6861;117549;-71
2023/01/18 04:18:40;;;;;;;16.27;12.95;;;4.40;56.80;;;;;;20647;6861;122410;-72
2023/01/18 04:21:05;;;;;;;22.40;18.90;;;4.10;57.30;;;;;;20463;6861;311885;-73
2023/01/18 04:23:31;;;;;;;21.40;19.20;;;4.20;57.70;;;;;;20454;6861;324651;-74
2023/01/18 04:25:57;;;;;;;22.58;20.00;;;4.60;57.00;;;;;;20466;6861;307622;-74
2023/01/18 04:28:25;;;;;;;24.83;21.50;;;4.90;56.20;;;;;;20450;6861;312234;-74
2023/01/18 04:30:54;;;;;;;23.10;20.33;;;5.10;55.60;;;;;;20446;6861;348503;-74
2023/01/18 04:33:20;;;;;;;22.60;19.67;;;5.20;54.80;;;;;;20455;6861;279085;-73
2023/01/18 04:35:46;;;;;;;21.77;14.90;;;5.10;54.80;;;;;;20654;6861;117808;-75
2023/01/18 04:38:11;;;;;;;17.07;14.23;;;5.10;54.80;;;;;;20670;6861;117989;-74
2023/01/18 04:40:38;;;;;;;20.88;14.02;;;4.50;56.00;;;;;;20649;6861;117797;-74
2023/01/18 04:43:03;;;;;;;13.63;11.43;;;4.50;56.00;;;;;;20665;6861;117631;-75
2023/01/18 04:45:30;;;;;;;14.20;12.57;;;4.10;57.00;;;;;;20664;6861;117709;-73
2023/01/18 04:47:55;;;;;;;18.20;16.40;;;4.10;57.00;;;;;;20435;6859;308086;-72
2023/01/18 04:50:21;;;;;;;15.88;14.27;;;4.20;57.10;;;;;;20655;6860;120140;-73
2023/01/18 04:52:46;;;;;;;12.65;11.38;;;4.20;56.90;;;;;;20640;6860;117941;-73
2023/01/18 04:55:14;;;;;;;10.90;9.90;;;4.00;57.00;;;;;;20660;6860;117271;-72
2023/01/18 04:57:37;;;;;;;10.07;9.00;;;3.80;57.20;;;;;;20602;6875;117092;-75
2023/01/18 05:00:03;;;;;;;12.93;11.83;;;3.70;57.40;;;;;;20469;6860;280562;-74
2023/01/18 05:02:29;;;;;;;12.57;11.50;;;3.80;57.50;;;;;;20468;6860;311301;-77
2023/01/18 05:04:54;;;;;;;13.02;11.90;;;4.10;56.60;;;;;;20473;6860;278617;-77
2023/01/18 05:07:20;;;;;;;12.13;11.23;;;4.40;55.60;;;;;;20467;6860;312339;-74
2023/01/18 05:09:45;;;;;;;11.40;10.60;;;4.60;55.20;;;;;;20451;6860;341414;-74
2023/01/18 05:12:11;;;;;;;10.55;9.75;;;4.70;54.60;;;;;;20459;6860;308064;-75
2023/01/18 05:14:37;;;;;;;11.15;10.30;;;4.90;54.40;;;;;;20448;6860;279146;-73
2023/01/18 05:17:03;;;;;;;9.20;8.50;;;4.70;53.90;;;;;;20674;6860;117529;-75
2023/01/18 05:19:29;;;;;;;8.23;7.63;;;4.70;53.90;;;;;;20673;6860;117871;-74
2023/01/18 05:21:55;;;;;;;8.27;7.53;;;4.00;55.50;;;;;;20624;6876;119350;-73
2023/01/18 05:24:20;;;;;;;10.00;9.30;;;4.00;55.50;;;;;;20457;6860;308016;-74
2023/01/18 05:26:46;;;;;;;8.43;7.80;;;4.10;56.00;;;;;;20614;6876;119369;-73
2023/01/18 05:29:13;;;;;;;9.77;9.10;;;4.10;56.00;;;;;;20463;6861;293050;-74
2023/01/18 05:31:38;;;;;;;7.73;7.23;;;4.20;56.00;;;;;;20634;6876;117001;-76
2023/01/18 05:34:04;;;;;;;7.03;6.53;;;4.00;56.30;;;;;;20673;6861;118197;-74
2023/01/18 05:36:30;;;;;;;7.50;6.80;;;4.00;56.30;;;;;;20606;6876;118603;-74
2023/01/18 05:38:56;;;;;;;9.07;8.48;;;3.80;56.60;;;;;;20454;6861;284140;-74
2023/01/18 05:41:21;;;;;;;8.83;7.10;;;3.90;56.60;;;;;;20622;6876;117211;-74
2023/01/18 05:43:47;;;;;;;15.68;14.05;;;4.00;56.50;;;;;;20451;6861;307618;-75
2023/01/18 05:46:12;;;;;;;13.07;9.33;;;4.10;56.30;;;;;;20663;6861;118665;-74
2023/01/18 05:48:38;;;;;;;11.55;10.52;;;4.10;56.20;;;;;;20430;6861;308128;-76
2023/01/18 05:51:07;;;;;;;9.03;8.17;;;4.30;56.70;;;;;;20673;6861;119767;-75
2023/01/18 05:53:33;;;;;;;10.25;9.48;;;4.20;56.60;;;;;;20454;6861;278394;-74
2023/01/18 05:55:59;;;;;;;8.37;7.70;;;4.40;57.20;;;;;;20634;6876;117606;-75
2023/01/18 05:58:25;;;;;;;9.63;8.93;;;4.40;56.90;;;;;;20446;6859;290623;-75
2023/01/18 06:00:50;;;;;;;8.23;7.63;;;4.50;57.00;;;;;;20623;6875;117084;-73
2023/01/18 06:03:17;;;;;;;9.80;9.10;;;4.50;56.90;;;;;;20469;6860;303107;-76
2023/01/18 06:05:42;;;;;;;9.80;9.10;;;4.60;57.00;;;;;;20418;6875;311679;-75
2023/01/18 06:08:08;;;;;;;9.73;9.02;;;4.80;56.20;;;;;;20459;6860;323762;-77
2023/01/18 06:10:33;;;;;;;8.03;7.53;;;5.10;55.50;;;;;;20622;6875;118413;-79
2023/01/18 06:12:59;;;;;;;7.62;7.03;;;4.90;55.40;;;;;;20664;6860;117734;-77
2023/01/18 06:15:25;;;;;;;6.73;6.23;;;4.40;56.50;;;;;;20618;6875;119106;-78
2023/01/18 06:17:51;;;;;;;7.17;6.47;;;4.40;56.40;;;;;;20664;6860;116989;-77
2023/01/18 06:20:18;;;;;;;6.93;6.43;;;4.20;57.00;;;;;;20623;6876;117162;-75
2023/01/18 06:22:45;;;;;;;7.90;7.40;;;4.10;56.90;;;;;;20437;6860;410695;-73
2023/01/18 06:25:10;;;;;;;6.53;6.13;;;4.10;56.80;;;;;;20623;6876;116993;-75
2023/01/18 06:27:39;;;;;;;4.80;4.50;;;4.10;56.70;;;;;;20663;6860;119891;-74
2023/01/18 06:30:05;;;;;;;5.13;4.63;;;4.00;56.90;;;;;;20618;6876;118129;-73
2023/01/18 06:32:30;;;;;;;5.53;5.07;;;3.80;57.30;;;;;;20614;6860;121368;-74
2023/01/18 06:34:56;;;;;;;5.97;5.67;;;3.70;57.60;;;;;;20412;6876;308142;-75
2023/01/18 06:37:22;;;;;;;6.75;6.25;;;3.90;57.30;;;;;;20453;6861;307554;-75
2023/01/18 06:39:47;;;;;;;4.83;4.53;;;4.30;56.20;;;;;;20625;6876;119822;-76
2023/01/18 06:42:13;;;;;;;4.62;4.32;;;4.20;56.00;;;;;;20673;6861;117259;-79
2023/01/18 06:44:39;;;;;;;4.72;4.43;;;4.00;56.30;;;;;;20606;6876;120975;-77
2023/01/18 06:47:04;;;;;;;5.20;4.80;;;3.90;56.70;;;;;;20450;6861;308801;-74
2023/01/18 06:49:29;;;;;;;4.13;3.93;;;4.00;56.90;;;;;;20627;6876;117253;-75
2023/01/18 06:51:55;;;;;;;3.70;3.30;;;4.00;56.40;;;;;;20670;6861;119209;-75
2023/01/18 06:54:23;;;;;;;4.85;4.55;;;3.80;56.50;;;;;;20417;6876;278231;-81
2023/01/18 06:56:50;;;;;;;4.43;4.13;;;3.90;56.50;;;;;;20671;6861;117317;-75
2023/01/18 06:59:15;;;;;;;4.50;4.10;;;3.90;56.30;;;;;;20624;6876;117032;-75
2023/01/18 07:01:41;;;;;;;4.32;4.12;;;3.80;56.70;;;;;;20671;6861;118624;-75
2023/01/18 07:04:06;;;;;;;4.43;4.13;;;3.60;57.00;;;;;;20628;6876;117066;-75
2023/01/18 07:06:32;;;;;;;5.35;4.32;;;3.50;57.40;;;;;;20659;6861;118749;-75
2023/01/18 07:08:58;;;;;;;5.28;4.87;;;3.40;57.70;;;;;;20414;6876;308946;-75
2023/01/18 07:11:24;;;;;;;4.37;4.07;;;3.70;57.60;;;;;;20677;6859;117470;-74
2023/01/18 07:13:50;;;;;;;6.13;5.73;;;3.70;57.40;;;;;;20414;6875;300837;-76
2023/01/18 07:16:19;;;;;;;5.30;4.90;;;3.90;57.30;;;;;;20673;6860;117224;-80
2023/01/18 07:18:45;;;;;;;5.78;5.47;;;3.90;56.90;;;;;;20389;6875;337669;-76
2023/01/18 07:21:09;;;;;;;4.73;4.27;;;4.10;56.90;;;;;;20665;6860;117796;-76
2023/01/18 07:23:38;;;;;;;3.70;3.47;;;4.00;56.60;;;;;;20631;6875;117478;-77
2023/01/18 07:26:07;;;;;;;4.00;3.70;;;3.90;57.10;;;;;;20617;6860;124289;-78
2023/01/18 07:28:32;;;;;;;5.27;4.87;;;3.70;57.30;;;;;;20386;6875;309618;-78
2023/01/18 07:30:58;;;;;;;5.15;4.85;;;3.80;56.60;;;;;;20474;6860;288611;-77
2023/01/18 07:33:25;;;;;;;4.40;4.00;;;4.20;56.40;;;;;;20644;6876;117610;-77
2023/01/18 07:35:52;;;;;;;5.40;5.10;;;4.10;56.00;;;;;;20453;6860;337605;-78
2023/01/18 07:38:19;;;;;;;5.10;4.70;;;4.20;56.10;;;;;;20641;6876;119364;-78
2023/01/18 07:40:47;;;;;;;4.63;4.33;;;4.20;56.10;;;;;;20669;6860;118124;-77
2023/01/18 07:43:14;;;;;;;4.93;4.53;;;4.00;56.40;;;;;;20676;6876;67975;-77
2023/01/18 07:45:40;;;;;;;4.87;4.47;;;3.80;57.00;;;;;;20693;6860;119641;-77
2023/01/18 07:48:05;;;;;;;5.57;5.27;;;3.70;57.50;;;;;;20430;6876;278109;-77
2023/01/18 07:50:34;;;;;;;6.07;5.78;;;3.90;57.70;;;;;;20450;6860;306676;-77
2023/01/18 07:53:08;;;;;;;5.87;5.47;;;4.40;57.10;;;;;;20448;6876;280746;-78
2023/01/18 07:55:31;;;;;;;6.30;5.90;;;4.70;55.80;;;;;;20474;6861;307572;-77
2023/01/18 07:57:57;;;;;;;5.50;5.20;;;5.10;55.00;;;;;;20643;6876;117487;-79
2023/01/18 08:00:24;;;;;;;5.15;4.85;;;4.80;55.20;;;;;;20664;6861;117479;-77
2023/01/18 08:02:49;;;;;;;5.30;5.00;;;4.80;55.20;;;;;;20549;6861;119428;-77
2023/01/18 08:05:17;;;;;;;5.00;4.63;;;4.60;55.90;;;;;;20646;6875;114650;-77
2023/01/18 08:07:40;;;;;;;5.43;5.03;;;4.40;56.40;;;;;;20497;6861;337021;-77
2023/01/18 08:10:06;;;;;;;5.30;4.90;;;4.60;55.80;;;;;;20669;6876;72185;-77
2023/01/18 08:12:32;;;;;;;6.10;5.70;;;4.60;55.40;;;;;;20155;6861;302224;-77
2023/01/18 08:14:57;;;;;;;6.00;5.60;;;4.70;55.60;;;;;;20255;6932;279964;-78
2023/01/18 08:17:24;;;;;;;5.60;5.20;;;5.00;55.10;;;;;;20439;6947;117026;-78
2023/01/18 08:19:49;;;;;;;7.12;6.62;;;5.00;54.30;;;;;;20261;6932;310068;-79
2023/01/18 08:22:15;;;;;;;6.55;6.15;;;5.10;54.40;;;;;;20195;6945;310661;-78
2023/01/18 08:24:41;;;;;;;5.85;5.40;;;5.30;53.80;;;;;;20446;6934;120244;-78
2023/01/18 08:27:06;;;;;;;6.70;6.25;;;5.30;53.90;;;;;;20257;6934;339813;-77
2023/01/18 08:29:32;;;;;;;6.85;6.35;;;5.30;53.80;;;;;;20473;6935;117886;-78
2023/01/18 08:31:59;;;;;;;6.60;6.20;;;5.30;54.00;;;;;;20253;6935;340832;-79
2023/01/18 08:34:23;;;;;;;6.93;6.43;;;5.30;53.60;;;;;;20236;6935;338456;-78
2023/01/18 08:36:49;;;;;;;6.55;6.10;;;5.60;52.90;;;;;;20229;6935;343319;-78
2023/01/18 08:39:14;;;;;;;5.60;5.17;;;5.80;52.40;;;;;;20463;6935;116831;-78
2023/01/18 08:41:40;;;;;;;5.00;4.70;;;5.70;53.10;;;;;;20473;6935;121418;-78
2023/01/18 08:44:07;;;;;;;5.57;5.28;;;5.50;53.00;;;;;;20261;6935;315767;-78
2023/01/18 08:46:32;;;;;;;5.13;4.73;;;5.50;52.70;;;;;;20441;6935;121397;-78
2023/01/18 08:48:58;;;;;;;5.20;4.80;;;5.40;52.70;;;;;;20465;6935;117617;-78
2023/01/18 08:51:24;;;;;;;5.15;4.85;;;5.20;52.90;;;;;;20469;6935;118523;-80
2023/01/18 08:53:53;;;;;;;5.67;5.27;;;5.10;53.90;;;;;;20249;6935;326620;-80
2023/01/18 08:56:17;;;;;;;5.17;4.87;;;5.20;53.30;;;;;;20264;6935;281438;-78
2023/01/18 08:58:43;;;;;;;5.33;4.93;;;5.50;52.20;;;;;;19908;6935;348598;-78
2023/01/18 09:01:12;;;;;;;5.10;4.77;;;5.80;50.20;;;;;;20247;6935;309778;-78
2023/01/18 09:03:37;;;;;;;5.00;4.60;;;5.90;49.50;;;;;;20471;6935;118551;-78
2023/01/18 09:06:04;;;;;;;4.77;4.47;;;5.70;50.20;;;;;;20258;6935;309923;-78
2023/01/18 09:08:32;;;;;;;4.67;4.27;;;5.60;50.30;;;;;;20445;6935;118782;-78
2023/01/18 09:11:02;;;;;;;5.40;5.00;;;5.50;50.80;;;;;;20268;6935;308926;-78
2023/01/18 09:13:28;;;;;;;4.83;4.43;;;5.40;51.20;;;;;;20457;6935;117571;-78
2023/01/18 09:15:59;;;;;;;5.18;4.78;;;5.50;51.60;;;;;;20257;6935;281459;-78
2023/01/18 09:18:24;;;;;;;5.27;4.87;;;5.40;52.20;;;;;;20422;6935;119459;-78
2023/01/18 09:20:53;;;;;;;5.75;5.35;;;5.40;51.80;;;;;;20149;6935;311080;-78
2023/01/18 09:23:18;;;;;;;4.90;4.50;;;5.50;52.20;;;;;;20470;6935;118929;-78
2023/01/18 09:25:44;;;;;;;5.30;4.80;;;5.50;51.80;;;;;;20473;6935;118465;-78
2023/01/18 09:28:10;;;;;;;5.50;5.20;;;5.40;52.50;;;;;;20265;6935;286956;-78
2023/01/18 09:30:35;;;;;;;5.12;4.78;;;5.50;51.80;;;;;;20246;6935;282095;-78
2023/01/18 09:33:01;;;;;;;5.18;4.78;;;5.80;50.60;;;;;;20282;6933;295653;-78
2023/01/18 09:35:27;;;;;;;5.83;4.27;;;6.00;49.90;;;;;;20467;6934;117679;-78
2023/01/18 09:37:53;;;;;;;5.00;4.70;;;5.90;50.40;;;;;;20258;6934;280838;-78
2023/01/18 09:40:18;;;;;;;4.63;4.33;;;6.00;50.40;;;;;;20191;6935;118578;-78
2023/01/18 09:42:47;;;;;;;4.82;4.53;;;5.90;50.60;;;;;;20188;6935;342590;-78
2023/01/18 09:45:16;;;;;;;5.47;4.93;;;5.90;50.70;;;;;;20469;6935;117831;-78
2023/01/18 09:47:45;;;;;;;4.60;4.30;;;5.90;51.00;;;;;;20370;6935;117633;-78
2023/01/18 09:50:14;;;;;;;4.80;4.50;;;5.70;51.50;;;;;;20246;6935;280684;-77
2023/01/18 09:53:07;;;;;;;3.90;3.70;;;5.70;51.10;;;;;;20426;6935;117955;-78
2023/01/18 09:55:32;;;;;;;4.90;4.50;;;5.80;51.40;;;;;;20242;6935;307138;-78
2023/01/18 09:58:11;;;;;;;3.87;3.67;;;5.90;50.20;;;;;;20436;6935;116482;-78
2023/01/18 10:00:39;;;;;;;4.67;4.37;;;5.90;50.60;;;;;;20210;6935;280400;-78
2023/01/18 10:03:18;;;;;;;4.40;4.10;;;6.00;50.10;;;;;;20469;6935;117959;-78
2023/01/18 10:05:50;;;;;;;4.50;4.20;;;5.90;50.20;;;;;;20246;6935;333222;-78
2023/01/18 10:08:16;;;;;;;4.17;3.93;;;6.00;49.20;;;;;;20416;6935;121261;-79
2023/01/18 10:10:55;;;;;;;4.50;4.20;;;5.90;49.60;;;;;;20440;6935;118410;-78
2023/01/18 10:13:43;;;;;;;4.43;4.13;;;5.70;50.30;;;;;;20393;6935;118213;-78
2023/01/18 10:16:15;;;;;;;8.20;7.60;;;5.50;51.10;;;;;;20262;6935;309463;-78
2023/01/18 10:18:47;;;;;;;6.83;6.33;;;5.70;50.90;;;;;;20466;6935;123148;-81
2023/01/18 10:21:09;;;;;;;8.93;8.13;;;5.70;51.00;;;;;;20442;6935;117617;-76
2023/01/18 10:23:41;;;;;;;7.45;6.95;;;5.60;51.60;;;;;;20235;6935;308868;-76
2023/01/18 10:26:10;;;;;;;6.37;5.87;;;5.70;51.10;;;;;;20455;6935;118651;-76
2023/01/18 10:28:46;;;;;;;6.47;5.87;;;5.70;50.80;;;;;;20118;6935;119679;-77
2023/01/18 10:31:33;;;;;;;5.63;5.23;;;5.60;51.40;;;;;;20152;6935;313933;-77
2023/01/18 10:33:59;;;;;;;8.63;7.90;;;5.60;50.10;;;;;;20049;6935;342799;-77
2023/01/18 10:36:31;;;;;;;5.72;5.32;;;6.00;49.80;;;;;;20436;6935;119541;-77
2023/01/18 10:38:55;;;;;;;14.17;9.30;;;5.90;50.20;;;;;;20307;6935;117015;-77
2023/01/18 10:41:27;;;;;;;6.67;6.07;;;5.70;50.80;;;;;;20469;6935;117873;-77
2023/01/18 10:43:52;;;;;;;6.23;5.63;;;5.50;51.40;;;;;;20469;6935;119140;-77
2023/01/18 10:46:18;;;;;;;4.00;3.72;;;5.30;51.80;;;;;;20469;6933;117412;-77
2023/01/18 10:48:48;;;;;;;5.40;5.00;;;5.40;51.40;;;;;;20237;6934;316042;-78
2023/01/18 10:51:23;;;;;;;5.07;4.47;;;5.30;50.70;;;;;;20340;6934;119929;-77
2023/01/18 10:53:49;;;;;;;3.70;3.40;;;5.40;50.80;;;;;;20289;6935;118378;-77
2023/01/18 10:56:18;;;;;;;3.93;3.73;;;5.20;51.20;;;;;;20463;6935;117354;-77
2023/01/18 10:58:50;;;;;;;4.93;4.62;;;5.10;51.20;;;;;;20218;6935;283052;-77
2023/01/18 11:01:26;;;;;;;4.65;4.30;;;5.20;50.50;;;;;;20254;6935;310220;-78
2023/01/18 11:03:54;;;;;;;4.13;3.80;;;5.50;50.30;;;;;;20452;6935;121185;-80
2023/01/18 11:06:19;;;;;;;4.17;3.87;;;5.50;50.30;;;;;;20448;6935;118138;-77
2023/01/18 11:08:44;;;;;;;3.87;3.67;;;5.20;50.60;;;;;;20442;6935;120092;-75
2023/01/18 11:11:16;;;;;;;5.53;5.20;;;4.90;50.70;;;;;;20244;6935;310053;-78
2023/01/18 11:13:45;;;;;;;4.87;4.53;;;5.00;50.80;;;;;;20246;6935;285796;-76
2023/01/18 11:16:19;;;;;;;4.90;4.60;;;5.30;50.10;;;;;;20238;6935;340325;-75
2023/01/18 11:19:03;;;;;;;4.60;4.30;;;5.60;49.70;;;;;;20182;6935;287576;-75
2023/01/18 11:21:39;;;;;;;4.00;3.70;;;5.90;49.70;;;;;;20244;6935;118843;-76
2023/01/18 11:23:59;;;;;;;3.73;3.53;;;5.80;50.10;;;;;;20222;6935;116692;-76
2023/01/18 11:26:27;;;;;;;3.73;3.43;;;5.30;51.00;;;;;;20432;6935;118041;-76
2023/01/18 11:28:58;;;;;;;3.50;3.30;;;5.30;51.00;;;;;;20467;6935;121455;-75
2023/01/18 11:31:24;;;;;;;3.50;3.30;;;5.10;51.20;;;;;;20444;6935;121868;-75
2023/01/18 11:33:52;;;;;;;3.93;3.73;;;5.00;51.60;;;;;;20468;6935;117457;-75
2023/01/18 11:36:20;;;;;;;4.60;4.30;;;4.80;51.60;;;;;;20244;6935;286040;-73
2023/01/18 11:38:46;;;;;;;3.83;3.53;;;5.00;51.30;;;;;;20420;6935;118464;-80
2023/01/18 11:41:15;;;;;;;3.50;3.30;;;4.90;52.00;;;;;;20460;6935;117895;-76
2023/01/18 11:43:45;;;;;;;3.63;3.43;;;4.90;51.30;;;;;;20450;6935;116972;-77
2023/01/18 11:46:24;;;;;;;4.70;4.40;;;4.80;51.60;;;;;;20214;6935;310943;-77
2023/01/18 11:48:49;;;;;;;4.90;4.60;;;4.90;50.60;;;;;;20426;6935;117409;-76
2023/01/18 11:51:21;;;;;;;5.28;4.20;;;5.00;50.90;;;;;;20452;6935;117887;-77
2023/01/18 11:54:25;;;;;;;4.90;4.60;;;4.90;51.40;;;;;;20220;6935;332536;-74
2023/01/18 11:56:49;;;;;;;4.33;4.10;;;5.10;51.60;;;;;;20433;6933;118168;-75
2023/01/18 11:59:14;;;;;;;4.83;4.47;;;5.20;51.50;;;;;;20247;6934;280854;-76
2023/01/18 12:01:53;;;;;;;4.50;4.20;;;5.40;50.60;;;;;;20436;6934;118449;-74
2023/01/18 12:04:39;;;;;;;4.17;3.90;;;5.40;50.50;;;;;;20460;6935;116681;-76
2023/01/18 12:07:27;;;;;;;4.17;3.87;;;5.30;51.00;;;;;;20431;6935;117587;-76
2023/01/18 12:09:56;;;;;;;4.00;3.70;;;5.20;51.40;;;;;;19995;6935;67778;-76
2023/01/18 12:12:31;;;;;;;6.00;5.60;;;5.00;51.70;;;;;;20234;6935;280481;-76
2023/01/18 12:15:16;;;;;;;3.90;3.70;;;5.20;51.50;;;;;;20196;6935;117563;-77
2023/01/18 12:18:22;;;;;;;5.30;4.90;;;5.30;51.20;;;;;;20216;6935;339857;-78
2023/01/18 12:21:01;;;;;;;4.70;4.40;;;5.50;49.80;;;;;;20443;6935;119254;-77
2023/01/18 12:23:56;;;;;;;5.37;4.97;;;5.40;50.20;;;;;;20234;6935;310642;-76
2023/01/18 12:26:34;;;;;;;5.07;4.78;;;5.60;50.70;;;;;;20250;6935;348110;-77
2023/01/18 12:29:10;;;;;;;4.03;3.73;;;5.90;49.70;;;;;;20456;6935;117769;-76
2023/01/18 12:31:41;;;;;;;4.53;4.23;;;5.80;49.70;;;;;;20239;6935;282318;-77
2023/01/18 12:34:14;;;;;;;4.80;4.50;;;5.90;49.10;;;;;;20232;6935;290410;-78
2023/01/18 12:37:09;;;;;;;4.23;3.97;;;6.20;48.50;;;;;;20424;6935;117709;-75
2023/01/18 12:40:13;;;;;;;4.87;4.57;;;6.10;48.90;;;;;;20241;6935;344780;-75
2023/01/18 12:42:58;;;;;;;4.87;4.47;;;6.20;49.00;;;;;;20436;6935;118482;-77
2023/01/18 12:45:47;;;;;;;4.40;4.10;;;6.00;49.40;;;;;;20446;6935;117917;-78
2023/01/18 12:48:16;;;;;;;4.40;4.20;;;5.90;50.00;;;;;;20235;6935;280390;-77
2023/01/18 12:50:42;;;;;;;5.30;5.00;;;5.90;49.70;;;;;;20218;6935;344463;-77
2023/01/18 12:53:17;;;;;;;5.57;5.20;;;6.20;49.30;;;;;;20238;6935;296907;-77
2023/01/18 12:55:43;;;;;;;5.20;4.90;;;6.40;48.70;;;;;;19986;6935;280479;-78
2023/01/18 12:58:08;;;;;;;5.50;5.10;;;6.70;48.10;;;;;;20409;6935;118759;-76
2023/01/18 13:00:34;;;;;;;5.67;5.30;;;6.50;48.30;;;;;;20408;6935;117750;-82
2023/01/18 13:03:00;;;;;;;5.30;4.90;;;5.90;50.00;;;;;;20456;6935;118880;-78
2023/01/18 13:05:35;;;;;;;6.03;5.53;;;5.90;49.70;;;;;;20434;6935;117462;-79
2023/01/18 13:08:14;;;;;;;6.93;6.32;;;5.70;50.80;;;;;;20253;6933;312493;-78
2023/01/18 13:10:39;;;;;;;5.03;4.63;;;5.90;50.20;;;;;;20411;6934;117360;-78
2023/01/18 13:13:05;;;;;;;4.73;4.37;;;5.80;49.80;;;;;;20229;6934;314273;-77
2023/01/18 13:15:44;;;;;;;5.50;5.10;;;5.90;48.80;;;;;;20233;6935;292200;-78
2023/01/18 13:18:09;;;;;;;4.70;4.40;;;6.10;47.50;;;;;;20434;6935;117743;-79